createdAt,value
2018-07-24T00:00:41.140Z,69.61
2018-07-24T00:03:09.976Z,69.63
2018-07-24T00:05:38.823Z,69.34
2018-07-24T00:08:07.605Z,70.25
2018-07-24T00:10:36.336Z,69.28
2018-07-24T00:13:04.971Z,70.45
2018-07-24T00:15:33.862Z,70.54
2018-07-24T00:18:02.604Z,70.67
2018-07-24T00:20:31.404Z,71.25
2018-07-24T00:23:00.124Z,70.52
2018-07-24T00:25:28.952Z,71.02
2018-07-24T00:27:58.031Z,70.47
2018-07-24T00:30:26.800Z,70.14
2018-07-24T00:32:55.584Z,70.04
2018-07-24T00:35:24.328Z,69.64
2018-07-24T00:37:53.051Z,70.67
2018-07-24T00:40:21.786Z,70.44
2018-07-24T00:42:50.602Z,70.66
2018-07-24T00:45:19.477Z,70.89
2018-07-24T00:47:48.548Z,70.87
2018-07-24T00:50:17.297Z,70.90
2018-07-24T00:52:46.055Z,71.47
2018-07-24T00:55:15.128Z,71.44
2018-07-24T00:57:43.824Z,71.14
2018-07-24T01:00:12.447Z,71.25
2018-07-24T01:02:41.292Z,71.20
2018-07-24T01:05:10.084Z,71.88
2018-07-24T01:07:39.303Z,71.50
2018-07-24T01:10:10.120Z,71.33
2018-07-24T01:12:38.750Z,71.86
2018-07-24T01:15:08.023Z,71.57
2018-07-24T01:17:37.393Z,71.63
2018-07-24T01:20:06.521Z,72.72
2018-07-24T01:22:35.576Z,72.88
2018-07-24T01:25:04.387Z,73.88
2018-07-24T01:27:33.324Z,73.10
2018-07-24T01:30:02.547Z,73.39
2018-07-24T01:32:31.176Z,73.60
2018-07-24T01:34:59.907Z,73.02
2018-07-24T01:37:28.653Z,72.77
2018-07-24T01:39:57.522Z,72.78
2018-07-24T01:42:26.136Z,73.04
2018-07-24T01:44:54.903Z,72.51
2018-07-24T01:47:23.968Z,73.09
2018-07-24T01:49:52.528Z,73.51
2018-07-24T01:52:21.988Z,73.19
2018-07-24T01:54:50.562Z,73.49
2018-07-24T01:57:19.201Z,73.54
2018-07-24T01:59:47.991Z,74.03
2018-07-24T02:02:16.592Z,73.46
2018-07-24T02:04:45.779Z,72.89
2018-07-24T02:07:14.588Z,72.47
2018-07-24T02:09:43.472Z,72.96
2018-07-24T02:12:12.427Z,72.73
2018-07-24T02:14:41.127Z,72.80
2018-07-24T02:17:09.952Z,73.07
2018-07-24T02:19:38.592Z,72.93
2018-07-24T02:22:07.507Z,72.85
2018-07-24T02:24:36.179Z,72.98
2018-07-24T02:27:05.484Z,73.38
2018-07-24T02:29:34.082Z,74.23
2018-07-24T02:32:03.190Z,74.67
2018-07-24T02:34:31.893Z,74.01
2018-07-24T02:37:00.579Z,74.17
2018-07-24T02:39:29.337Z,74.15
2018-07-24T02:41:58.542Z,74.72
2018-07-24T02:44:27.198Z,74.30
2018-07-24T02:46:56.026Z,74.54
2018-07-24T02:49:24.778Z,74.75
2018-07-24T02:51:53.696Z,74.03
2018-07-24T02:54:22.604Z,74.59
2018-07-24T02:56:51.236Z,74.79
2018-07-24T02:59:20.040Z,74.98
2018-07-24T03:01:49.293Z,74.92
2018-07-24T03:04:18.037Z,75.19
2018-07-24T03:06:46.735Z,75.49
2018-07-24T03:09:15.824Z,75.28
2018-07-24T03:11:44.536Z,75.94
2018-07-24T03:14:13.173Z,75.45
2018-07-24T03:16:41.990Z,75.27
2018-07-24T03:19:10.635Z,75.26
2018-07-24T03:21:39.327Z,75.50
2018-07-24T03:24:08.179Z,75.92
2018-07-24T03:26:37.131Z,75.45
2018-07-24T03:29:06.264Z,75.66
2018-07-24T03:31:34.906Z,74.90
2018-07-24T03:34:03.524Z,75.81
2018-07-24T03:36:32.325Z,75.80
2018-07-24T03:39:01.140Z,76.17
2018-07-24T03:41:29.951Z,76.09
2018-07-24T03:43:58.637Z,76.66
2018-07-24T03:46:27.652Z,76.44
2018-07-24T03:48:56.403Z,75.13
2018-07-24T03:51:25.211Z,75.19
2018-07-24T03:53:54.067Z,75.31
2018-07-24T03:56:22.781Z,74.30
2018-07-24T03:58:51.613Z,74.42
2018-07-24T04:01:20.303Z,74.07
2018-07-24T04:03:48.983Z,74.49
2018-07-24T04:06:17.634Z,74.23
2018-07-24T04:08:46.345Z,74.67
2018-07-24T04:11:15.106Z,74.49
2018-07-24T04:13:44.550Z,75.55
2018-07-24T04:16:13.316Z,75.70
2018-07-24T04:18:50.079Z,75.39
2018-07-24T04:21:20.012Z,74.43
2018-07-24T04:23:49.491Z,74.71
2018-07-24T04:26:18.172Z,74.91
2018-07-24T04:28:47.604Z,75.53
2018-07-24T04:31:16.252Z,75.03
2018-07-24T04:33:45.127Z,73.49
2018-07-24T04:36:13.855Z,73.15
2018-07-24T04:38:42.440Z,72.85
2018-07-24T04:41:11.253Z,72.83
2018-07-24T04:43:40.040Z,72.33
2018-07-24T04:46:08.839Z,72.31
2018-07-24T04:48:37.528Z,72.30
2018-07-24T04:51:06.384Z,71.98
2018-07-24T04:53:35.163Z,71.90
2018-07-24T04:56:04.128Z,71.72
2018-07-24T04:58:32.852Z,71.64
2018-07-24T05:01:01.504Z,71.55
2018-07-24T05:03:30.308Z,71.79
2018-07-24T05:05:59.252Z,71.95
2018-07-24T05:08:27.852Z,71.23
2018-07-24T05:10:56.869Z,71.77
2018-07-24T05:13:25.603Z,72.06
2018-07-24T05:15:55.255Z,71.70
2018-07-24T05:18:23.940Z,71.21
2018-07-24T05:20:52.666Z,71.29
2018-07-24T05:23:21.585Z,71.60
2018-07-24T05:25:50.217Z,71.04
2018-07-24T05:28:18.928Z,71.68
2018-07-24T05:30:47.628Z,70.36
2018-07-24T05:33:16.377Z,70.47
2018-07-24T05:35:45.302Z,71.32
2018-07-24T05:38:13.999Z,71.19
2018-07-24T05:40:42.739Z,70.54
2018-07-24T05:43:11.820Z,69.91
2018-07-24T05:45:40.613Z,68.74
2018-07-24T05:48:09.328Z,67.18
2018-07-24T05:50:38.243Z,67.59
2018-07-24T05:53:07.075Z,67.74
2018-07-24T05:55:36.793Z,66.75
2018-07-24T05:58:05.403Z,66.55
2018-07-24T06:00:34.188Z,66.28
2018-07-24T06:03:02.947Z,66.50
2018-07-24T06:05:31.669Z,66.23
2018-07-24T06:08:00.322Z,65.32
2018-07-24T06:10:28.901Z,64.14
2018-07-24T06:12:57.595Z,63.96
2018-07-24T06:15:26.281Z,62.73
2018-07-24T06:17:55.005Z,62.50
2018-07-24T06:20:24.095Z,61.42
2018-07-24T06:22:52.811Z,61.32
2018-07-24T06:25:21.531Z,59.98
2018-07-24T06:27:50.223Z,59.98
2018-07-24T06:30:18.989Z,59.13
2018-07-24T06:32:47.950Z,58.87
2018-07-24T06:35:16.816Z,58.46
2018-07-24T06:37:45.728Z,56.99
2018-07-24T06:40:14.437Z,56.67
2018-07-24T06:42:43.389Z,53.90
2018-07-24T06:45:12.097Z,54.96
2018-07-24T06:47:40.840Z,53.25
2018-07-24T06:50:09.631Z,50.19
2018-07-24T06:52:38.732Z,49.04
2018-07-24T06:55:07.556Z,46.97
2018-07-24T06:57:36.289Z,45.13
2018-07-24T07:00:05.380Z,44.40
2018-07-24T07:02:34.081Z,43.58
2018-07-24T07:05:03.111Z,41.70
2018-07-24T07:07:31.866Z,39.64
2018-07-24T07:10:00.429Z,38.25
2018-07-24T07:12:29.460Z,37.53
2018-07-24T07:14:58.220Z,38.46
2018-07-24T07:17:27.020Z,39.17
2018-07-24T07:19:56.235Z,38.47
2018-07-24T07:22:25.418Z,39.84
2018-07-24T07:24:54.248Z,40.09
2018-07-24T07:27:23.207Z,41.50
2018-07-24T07:29:51.824Z,40.35
2018-07-24T07:32:20.880Z,38.72
2018-07-24T07:34:49.986Z,37.58
2018-07-24T07:37:18.903Z,36.53
2018-07-24T07:39:47.587Z,37.72
2018-07-24T07:42:16.578Z,37.01
2018-07-24T07:44:45.200Z,36.75
2018-07-24T07:47:13.966Z,36.83
2018-07-24T07:49:42.660Z,36.28
2018-07-24T07:52:11.580Z,37.68
2018-07-24T07:54:40.348Z,36.58
2018-07-24T07:57:09.416Z,35.98
2018-07-24T07:59:38.147Z,34.99
2018-07-24T08:02:06.833Z,34.77
2018-07-24T08:04:35.764Z,35.23
2018-07-24T08:07:04.412Z,32.99
2018-07-24T08:09:33.204Z,34.13
2018-07-24T08:12:02.044Z,33.43
2018-07-24T08:14:30.763Z,34.48
2018-07-24T08:16:59.463Z,32.98
2018-07-24T08:19:28.224Z,31.93
2018-07-24T08:21:57.020Z,31.60
2018-07-24T08:24:25.771Z,30.38
2018-07-24T08:26:54.965Z,29.92
2018-07-24T08:29:24.088Z,30.50
2018-07-24T08:31:52.683Z,30.63
2018-07-24T08:34:21.956Z,30.63
2018-07-24T08:36:50.745Z,28.84
2018-07-24T08:39:19.600Z,28.81
2018-07-24T08:41:48.544Z,29.68
2018-07-24T08:44:17.380Z,28.87
2018-07-24T08:46:46.237Z,29.46
2018-07-24T08:49:15.000Z,29.04
2018-07-24T08:51:43.873Z,30.14
2018-07-24T08:54:12.596Z,26.81
2018-07-24T08:56:41.603Z,27.56
2018-07-24T08:59:10.280Z,27.68
2018-07-24T09:01:38.983Z,26.76
2018-07-24T09:04:07.912Z,25.38
2018-07-24T09:06:36.537Z,24.76
2018-07-24T09:09:08.321Z,26.88
2018-07-24T09:11:37.045Z,26.26
2018-07-24T09:14:05.827Z,23.78
2018-07-24T09:16:34.824Z,24.69
2018-07-24T09:19:03.412Z,23.90
2018-07-24T09:21:32.041Z,24.62
2018-07-24T09:24:00.976Z,24.46
2018-07-24T09:26:47.525Z,24.09
2018-07-24T09:29:16.376Z,25.26
2018-07-24T09:31:45.444Z,23.53
2018-07-24T09:34:14.226Z,22.72
2018-07-24T09:36:43.443Z,23.92
2018-07-24T09:39:12.419Z,22.94
2018-07-24T09:41:41.004Z,21.94
2018-07-24T09:44:10.112Z,21.25
2018-07-24T09:46:38.754Z,20.62
2018-07-24T09:49:07.343Z,21.37
2018-07-24T09:51:36.272Z,20.69
2018-07-24T09:54:04.907Z,20.37
2018-07-24T09:56:33.660Z,18.92
2018-07-24T09:59:02.343Z,18.55
2018-07-24T10:01:33.484Z,19.48
2018-07-24T10:04:03.117Z,19.91
2018-07-24T10:06:32.872Z,19.78
2018-07-24T10:09:01.548Z,18.65
2018-07-24T10:11:30.272Z,18.62
2018-07-24T10:13:58.925Z,17.42
2018-07-24T10:16:27.541Z,17.30
2018-07-24T10:18:56.278Z,16.16
2018-07-24T10:21:24.923Z,16.90
2018-07-24T10:23:53.624Z,15.99
2018-07-24T10:26:22.320Z,16.22
2018-07-24T10:28:50.936Z,16.98
2018-07-24T10:31:19.984Z,17.28
2018-07-24T10:33:51.852Z,17.24
2018-07-24T10:36:20.681Z,16.76
2018-07-24T10:38:49.244Z,15.15
2018-07-24T10:41:17.963Z,15.23
2018-07-24T10:43:46.637Z,15.54
2018-07-24T10:46:15.187Z,15.08
2018-07-24T10:48:43.985Z,14.94
2018-07-24T10:51:12.796Z,15.33
2018-07-24T10:53:41.955Z,15.13
2018-07-24T10:56:10.720Z,16.58
2018-07-24T10:58:39.471Z,15.46
2018-07-24T11:01:08.356Z,14.77
2018-07-24T11:03:36.956Z,14.22
2018-07-24T11:06:05.615Z,14.72
2018-07-24T11:08:34.419Z,14.12
2018-07-24T11:11:03.386Z,14.45
2018-07-24T11:13:32.337Z,12.97
2018-07-24T11:16:01.341Z,13.19
2018-07-24T11:18:30.012Z,12.05
2018-07-24T11:20:58.823Z,13.60
2018-07-24T11:23:27.604Z,14.31
2018-07-24T11:25:56.492Z,13.66
2018-07-24T11:28:25.283Z,12.33
2018-07-24T11:30:53.900Z,12.96
2018-07-24T11:33:22.544Z,13.45
2018-07-24T11:35:51.477Z,14.22
2018-07-24T11:38:20.060Z,14.67
2018-07-24T11:40:49.104Z,15.11
2018-07-24T11:43:17.750Z,15.02
2018-07-24T11:45:46.540Z,15.84
2018-07-24T11:48:15.440Z,14.82
2018-07-24T11:50:43.983Z,12.96
2018-07-24T11:53:12.583Z,14.00
2018-07-24T11:55:41.228Z,12.74
2018-07-24T11:58:09.875Z,12.44
2018-07-24T12:00:38.681Z,13.24
2018-07-24T12:03:07.905Z,13.35
2018-07-24T12:05:36.652Z,13.11
2018-07-24T12:08:05.324Z,12.21
2018-07-24T12:10:34.045Z,12.40
2018-07-24T12:13:02.710Z,12.39
2018-07-24T12:15:31.371Z,13.46
2018-07-24T12:18:00.021Z,14.30
2018-07-24T12:20:28.604Z,13.30
2018-07-24T12:22:57.228Z,14.06
2018-07-24T12:25:26.056Z,12.10
2018-07-24T12:27:54.971Z,12.03
2018-07-24T12:30:23.507Z,11.93
2018-07-24T12:32:52.430Z,11.62
2018-07-24T12:35:21.291Z,11.66
2018-07-24T12:37:49.947Z,11.43
2018-07-24T12:40:18.896Z,11.08
2018-07-24T12:42:47.636Z,11.89
2018-07-24T12:45:16.337Z,13.49
2018-07-24T12:47:45.255Z,13.22
2018-07-24T12:50:13.816Z,12.53
2018-07-24T12:52:42.593Z,12.42
2018-07-24T12:55:11.684Z,11.76
2018-07-24T12:57:40.484Z,12.69
2018-07-24T13:00:09.388Z,10.75
2018-07-24T13:02:38.519Z,13.38
2018-07-24T13:05:07.142Z,14.76
2018-07-24T13:07:35.741Z,14.83
2018-07-24T13:10:04.863Z,13.77
2018-07-24T13:12:33.409Z,13.44
2018-07-24T13:15:01.988Z,14.48
2018-07-24T13:17:30.761Z,14.47
2018-07-24T13:19:59.536Z,13.74
2018-07-24T13:22:28.272Z,14.11
2018-07-24T13:24:56.971Z,13.69
2018-07-24T13:27:25.680Z,13.34
2018-07-24T13:29:54.472Z,11.47
2018-07-24T13:32:23.279Z,11.32
2018-07-24T13:34:51.923Z,11.79
2018-07-24T13:37:20.732Z,13.31
2018-07-24T13:39:49.604Z,13.62
2018-07-24T13:42:18.556Z,11.92
2018-07-24T13:44:47.132Z,13.42
2018-07-24T13:47:15.991Z,13.89
2018-07-24T13:49:44.932Z,14.06
2018-07-24T13:52:13.791Z,13.51
2018-07-24T13:54:42.576Z,14.63
2018-07-24T13:57:11.850Z,16.07
2018-07-24T13:59:40.894Z,16.49
2018-07-24T14:02:09.911Z,15.78
2018-07-24T14:04:38.842Z,15.50
2018-07-24T14:07:09.432Z,15.81
2018-07-24T14:09:38.581Z,15.07
2018-07-24T14:12:07.504Z,15.35
2018-07-24T14:14:36.332Z,16.07
2018-07-24T14:17:05.215Z,14.63
2018-07-24T14:19:33.779Z,13.85
2018-07-24T14:22:03.103Z,15.03
2018-07-24T14:24:32.220Z,15.58
2018-07-24T14:27:00.954Z,15.77
2018-07-24T14:29:29.694Z,17.23
2018-07-24T14:31:58.533Z,16.73
2018-07-24T14:34:27.378Z,16.17
2018-07-24T14:36:56.172Z,16.29
2018-07-24T14:39:24.877Z,14.75
2018-07-24T14:41:53.695Z,13.54
2018-07-24T14:44:22.903Z,14.26
2018-07-24T14:46:51.559Z,15.08
2018-07-24T14:49:20.240Z,14.41
2018-07-24T14:51:48.851Z,14.42
2018-07-24T14:54:17.508Z,14.46
2018-07-24T14:56:47.128Z,14.61
2018-07-24T14:59:16.095Z,12.79
2018-07-24T15:01:44.691Z,13.59
2018-07-24T15:04:13.303Z,14.39
2018-07-24T15:06:42.309Z,14.04
2018-07-24T15:09:12.423Z,15.30
2018-07-24T15:11:41.533Z,16.01
2018-07-24T15:14:10.594Z,16.50
2018-07-24T15:16:39.220Z,16.09
2018-07-24T15:19:07.868Z,15.35
2018-07-24T15:21:36.628Z,16.74
2018-07-24T15:24:05.606Z,18.52
2018-07-24T15:26:45.823Z,19.80
2018-07-24T15:29:14.468Z,21.40
2018-07-24T15:31:43.056Z,21.33
2018-07-24T15:34:11.695Z,21.21
2018-07-24T15:36:40.723Z,21.59
2018-07-24T15:39:12.614Z,20.68
2018-07-24T15:41:41.969Z,20.24
2018-07-24T15:44:10.808Z,20.15
2018-07-24T15:46:40.079Z,19.72
2018-07-24T15:49:08.669Z,20.38
2018-07-24T15:51:37.759Z,20.62
2018-07-24T15:54:06.709Z,21.52
2018-07-24T15:56:35.270Z,21.07
2018-07-24T15:59:04.021Z,20.97
2018-07-24T16:01:32.807Z,21.28
2018-07-24T16:04:01.564Z,22.08
2018-07-24T16:06:30.622Z,21.61
2018-07-24T16:08:59.400Z,21.59
2018-07-24T16:11:28.093Z,22.61
2018-07-24T16:13:56.820Z,21.17
2018-07-24T16:16:25.799Z,21.65
2018-07-24T16:18:54.432Z,21.22
2018-07-24T16:21:23.118Z,20.65
2018-07-24T16:23:51.754Z,20.64
2018-07-24T16:26:20.547Z,20.63
2018-07-24T16:28:49.404Z,20.01
2018-07-24T16:31:19.554Z,20.21
2018-07-24T16:33:49.177Z,20.04
2018-07-24T16:36:17.864Z,19.21
2018-07-24T16:38:47.124Z,19.64
2018-07-24T16:41:19.012Z,20.88
2018-07-24T16:43:48.681Z,21.90
2018-07-24T16:46:18.024Z,20.64
2018-07-24T16:48:46.981Z,21.13
2018-07-24T16:51:16.382Z,20.85
2018-07-24T16:53:46.282Z,21.41
2018-07-24T16:56:16.098Z,21.26
2018-07-24T16:58:46.007Z,21.83
2018-07-24T17:01:16.277Z,22.03
2018-07-24T17:03:46.912Z,21.84
2018-07-24T17:06:17.659Z,22.82
2018-07-24T17:08:46.271Z,22.86
2018-07-24T17:11:16.404Z,23.48
2018-07-24T17:13:45.182Z,23.84
2018-07-24T17:16:14.733Z,22.63
2018-07-24T17:18:43.487Z,23.56
2018-07-24T17:21:12.356Z,23.39
2018-07-24T17:23:42.381Z,22.90
2018-07-24T17:26:13.015Z,23.83
2018-07-24T17:28:43.063Z,23.03
2018-07-24T17:31:13.091Z,23.24
2018-07-24T17:33:42.405Z,22.68
2018-07-24T17:36:11.549Z,22.45
2018-07-24T17:38:42.362Z,22.31
2018-07-24T17:41:12.261Z,22.60
2018-07-24T17:43:42.688Z,22.37
2018-07-24T17:46:12.893Z,22.37
2018-07-24T17:48:42.556Z,23.29
2018-07-24T17:51:12.598Z,23.43
2018-07-24T17:53:41.350Z,23.61
2018-07-24T17:56:10.187Z,23.59
2018-07-24T17:58:38.832Z,24.38
2018-07-24T18:01:07.428Z,24.21
2018-07-24T18:03:36.091Z,24.12
2018-07-24T18:06:05.011Z,25.17
2018-07-24T18:08:33.824Z,24.85
2018-07-24T18:11:03.876Z,24.92
2018-07-24T18:13:32.652Z,24.53
2018-07-24T18:16:01.287Z,25.68
2018-07-24T18:18:30.049Z,26.32
2018-07-24T18:20:58.640Z,26.40
2018-07-24T18:23:27.495Z,26.64
2018-07-24T18:25:56.804Z,27.30
2018-07-24T18:28:25.414Z,26.91
2018-07-24T18:30:54.313Z,27.19
2018-07-24T18:33:23.599Z,28.06
2018-07-24T18:35:53.136Z,28.84
2018-07-24T18:38:22.051Z,29.23
2018-07-24T18:40:51.158Z,29.83
2018-07-24T18:43:19.728Z,30.13
2018-07-24T18:45:48.432Z,31.19
2018-07-24T18:48:17.143Z,31.21
2018-07-24T18:50:46.137Z,30.53
2018-07-24T18:53:14.957Z,31.88
2018-07-24T18:55:43.547Z,32.44
2018-07-24T18:58:12.109Z,32.78
2018-07-24T19:00:41.643Z,32.90
2018-07-24T19:03:10.660Z,32.99
2018-07-24T19:05:39.288Z,34.50
2018-07-24T19:08:07.880Z,35.01
2018-07-24T19:10:37.573Z,34.97
2018-07-24T19:13:06.476Z,35.71
2018-07-24T19:15:35.164Z,36.28
2018-07-24T19:18:04.022Z,36.33
2018-07-24T19:20:32.704Z,37.41
2018-07-24T19:23:01.550Z,37.72
2018-07-24T19:25:30.456Z,38.65
2018-07-24T19:27:59.289Z,38.60
2018-07-24T19:30:28.045Z,38.50
2018-07-24T19:32:56.714Z,39.29
2018-07-24T19:35:25.376Z,38.88
2018-07-24T19:37:54.162Z,38.47
2018-07-24T19:40:23.320Z,39.22
2018-07-24T19:42:52.277Z,40.34
2018-07-24T19:45:20.943Z,39.35
2018-07-24T19:47:49.676Z,41.23
2018-07-24T19:50:18.268Z,40.40
2018-07-24T19:52:46.881Z,40.08
2018-07-24T19:55:15.796Z,38.96
2018-07-24T19:57:44.623Z,39.54
2018-07-24T20:00:14.072Z,39.53
2018-07-24T20:02:42.914Z,39.31
2018-07-24T20:05:12.321Z,39.79
2018-07-24T20:07:41.651Z,41.15
2018-07-24T20:10:10.402Z,40.32
2018-07-24T20:12:39.048Z,40.54
2018-07-24T20:15:07.803Z,41.31
2018-07-24T20:17:37.084Z,41.42
2018-07-24T20:20:06.472Z,41.23
2018-07-24T20:22:35.375Z,41.24
2018-07-24T20:25:04.471Z,42.39
2018-07-24T20:27:33.211Z,42.58
2018-07-24T20:30:01.875Z,42.68
2018-07-24T20:32:30.488Z,42.32
2018-07-24T20:34:59.250Z,43.33
2018-07-24T20:37:28.224Z,42.70
2018-07-24T20:39:57.287Z,43.05
2018-07-24T20:42:26.636Z,43.48
2018-07-24T20:44:56.081Z,44.39
2018-07-24T20:47:25.506Z,44.09
2018-07-24T20:49:54.216Z,44.58
2018-07-24T20:52:23.193Z,44.56
2018-07-24T20:54:53.163Z,44.13
2018-07-24T20:57:21.839Z,44.86
2018-07-24T20:59:50.656Z,44.87
2018-07-24T21:02:19.624Z,45.33
2018-07-24T21:04:48.509Z,45.42
2018-07-24T21:07:17.226Z,46.55
2018-07-24T21:09:45.920Z,46.82
2018-07-24T21:12:14.692Z,46.19
2018-07-24T21:14:43.779Z,47.35
2018-07-24T21:17:12.683Z,47.10
2018-07-24T21:19:41.275Z,47.68
2018-07-24T21:22:09.996Z,46.86
2018-07-24T21:24:38.646Z,48.18
2018-07-24T21:27:07.284Z,47.56
2018-07-24T21:29:36.012Z,48.23
2018-07-24T21:32:05.053Z,48.77
2018-07-24T21:34:33.747Z,48.34
2018-07-24T21:37:02.300Z,48.20
2018-07-24T21:39:30.969Z,48.53
2018-07-24T21:41:59.714Z,48.37
2018-07-24T21:44:29.202Z,48.87
2018-07-24T21:46:58.148Z,49.33
2018-07-24T21:49:26.943Z,49.47
2018-07-24T21:51:55.799Z,49.69
2018-07-24T21:54:24.521Z,49.24
2018-07-24T21:56:53.247Z,48.60
2018-07-24T21:59:22.152Z,49.28
2018-07-24T22:01:50.882Z,50.26
2018-07-24T22:04:19.889Z,49.93
2018-07-24T22:06:48.611Z,49.45
2018-07-24T22:09:17.352Z,50.25
2018-07-24T22:11:45.996Z,50.56
2018-07-24T22:14:14.640Z,51.12
2018-07-24T22:16:43.432Z,50.91
2018-07-24T22:19:12.069Z,52.12
2018-07-24T22:21:40.789Z,52.22
2018-07-24T22:24:09.473Z,52.64
2018-07-24T22:26:38.140Z,52.85
2018-07-24T22:29:06.912Z,53.20
2018-07-24T22:31:36.136Z,53.35
2018-07-24T22:34:04.850Z,53.60
2018-07-24T22:36:33.459Z,52.70
2018-07-24T22:39:02.172Z,52.90
2018-07-24T22:41:31.156Z,54.15
2018-07-24T22:43:59.831Z,53.80
2018-07-24T22:46:28.960Z,54.56
2018-07-24T22:48:57.613Z,54.87
2018-07-24T22:51:26.256Z,54.35
2018-07-24T22:53:55.824Z,54.86
2018-07-24T22:56:25.095Z,54.60
2018-07-24T22:58:53.943Z,54.85
2018-07-24T23:01:22.923Z,55.34
2018-07-24T23:03:54.782Z,54.62
2018-07-24T23:06:23.680Z,54.93
2018-07-24T23:08:52.516Z,55.15
2018-07-24T23:11:21.340Z,55.75
2018-07-24T23:13:50.100Z,55.46
2018-07-24T23:16:19.637Z,55.49
2018-07-24T23:18:48.601Z,55.96
2018-07-24T23:21:17.581Z,55.99
2018-07-24T23:23:46.863Z,56.27
2018-07-24T23:26:15.469Z,56.01
2018-07-24T23:28:44.256Z,56.46
2018-07-24T23:31:13.123Z,56.81
2018-07-24T23:33:41.806Z,56.49
2018-07-24T23:36:10.790Z,56.71
2018-07-24T23:38:39.476Z,56.92
2018-07-24T23:41:08.191Z,57.32
2018-07-24T23:43:37.720Z,57.02
2018-07-24T23:46:06.520Z,57.79
2018-07-24T23:48:35.303Z,57.90
2018-07-24T23:51:04.412Z,58.65
2018-07-24T23:53:33.076Z,58.33
2018-07-24T23:56:01.896Z,57.51
2018-07-24T23:58:30.653Z,58.17
